sensor_id;sensor_type;location;lat;lon;timestamp;P1;durP1;ratioP1;P2;durP2;ratioP2
59786;SDS011;45672;51.612;5.536;2023-07-22T00:01:59;14.35;;;9.38;;
59786;SDS011;45672;51.612;5.536;2023-07-22T00:04:25;13.55;;;11.05;;
59786;SDS011;45672;51.612;5.536;2023-07-22T00:06:52;13.60;;;10.18;;
59786;SDS011;45672;51.612;5.536;2023-07-22T00:09:17;12.13;;;10.35;;
59786;SDS011;45672;51.612;5.536;2023-07-22T00:11:42;16.00;;;11.07;;
59786;SDS011;45672;51.612;5.536;2023-07-22T00:14:08;14.38;;;10.43;;
59786;SDS011;45672;51.612;5.536;2023-07-22T00:16:34;14.95;;;11.52;;
59786;SDS011;45672;51.612;5.536;2023-07-22T00:18:59;15.38;;;10.77;;
59786;SDS011;45672;51.612;5.536;2023-07-22T00:21:25;18.05;;;10.40;;
59786;SDS011;45672;51.612;5.536;2023-07-22T00:23:50;13.57;;;10.52;;
59786;SDS011;45672;51.612;5.536;2023-07-22T00:26:16;14.05;;;10.18;;
59786;SDS011;45672;51.612;5.536;2023-07-22T00:28:41;16.67;;;11.38;;
59786;SDS011;45672;51.612;5.536;2023-07-22T00:31:08;15.77;;;10.85;;
59786;SDS011;45672;51.612;5.536;2023-07-22T00:33:33;14.50;;;11.10;;
59786;SDS011;45672;51.612;5.536;2023-07-22T00:35:59;16.08;;;11.60;;
59786;SDS011;45672;51.612;5.536;2023-07-22T00:38:24;16.65;;;11.02;;
59786;SDS011;45672;51.612;5.536;2023-07-22T00:40:50;18.67;;;11.63;;
59786;SDS011;45672;51.612;5.536;2023-07-22T00:43:15;17.27;;;12.48;;
59786;SDS011;45672;51.612;5.536;2023-07-22T00:45:41;19.52;;;11.57;;
59786;SDS011;45672;51.612;5.536;2023-07-22T00:48:06;18.80;;;12.60;;
59786;SDS011;45672;51.612;5.536;2023-07-22T00:50:33;18.23;;;12.77;;
59786;SDS011;45672;51.612;5.536;2023-07-22T00:53:00;19.83;;;13.10;;
59786;SDS011;45672;51.612;5.536;2023-07-22T00:55:25;20.23;;;12.50;;
59786;SDS011;45672;51.612;5.536;2023-07-22T00:57:51;21.02;;;13.45;;
59786;SDS011;45672;51.612;5.536;2023-07-22T01:00:17;22.73;;;12.43;;
59786;SDS011;45672;51.612;5.536;2023-07-22T01:02:42;19.83;;;12.98;;
59786;SDS011;45672;51.612;5.536;2023-07-22T01:05:09;21.60;;;12.98;;
59786;SDS011;45672;51.612;5.536;2023-07-22T01:07:36;18.40;;;12.93;;
59786;SDS011;45672;51.612;5.536;2023-07-22T01:10:03;19.77;;;12.65;;
59786;SDS011;45672;51.612;5.536;2023-07-22T01:12:30;23.50;;;13.00;;
59786;SDS011;45672;51.612;5.536;2023-07-22T01:14:56;19.65;;;13.05;;
59786;SDS011;45672;51.612;5.536;2023-07-22T01:17:21;22.13;;;13.38;;
59786;SDS011;45672;51.612;5.536;2023-07-22T01:19:47;17.88;;;12.90;;
59786;SDS011;45672;51.612;5.536;2023-07-22T01:22:13;20.95;;;13.77;;
59786;SDS011;45672;51.612;5.536;2023-07-22T01:24:38;17.27;;;12.70;;
59786;SDS011;45672;51.612;5.536;2023-07-22T01:27:05;19.98;;;13.23;;
59786;SDS011;45672;51.612;5.536;2023-07-22T01:29:33;19.15;;;12.38;;
59786;SDS011;45672;51.612;5.536;2023-07-22T01:31:59;15.73;;;12.32;;
59786;SDS011;45672;51.612;5.536;2023-07-22T01:34:24;20.13;;;12.63;;
59786;SDS011;45672;51.612;5.536;2023-07-22T01:36:49;22.30;;;12.65;;
59786;SDS011;45672;51.612;5.536;2023-07-22T01:39:15;16.25;;;11.88;;
59786;SDS011;45672;51.612;5.536;2023-07-22T01:41:41;17.00;;;12.13;;
59786;SDS011;45672;51.612;5.536;2023-07-22T01:44:07;16.42;;;11.90;;
59786;SDS011;45672;51.612;5.536;2023-07-22T01:46:39;15.88;;;12.02;;
59786;SDS011;45672;51.612;5.536;2023-07-22T01:49:05;19.77;;;11.95;;
59786;SDS011;45672;51.612;5.536;2023-07-22T01:51:35;22.98;;;11.90;;
59786;SDS011;45672;51.612;5.536;2023-07-22T01:54:05;17.15;;;12.85;;
59786;SDS011;45672;51.612;5.536;2023-07-22T01:56:30;17.25;;;12.55;;
59786;SDS011;45672;51.612;5.536;2023-07-22T01:58:56;17.70;;;12.82;;
59786;SDS011;45672;51.612;5.536;2023-07-22T02:01:21;17.83;;;12.25;;
59786;SDS011;45672;51.612;5.536;2023-07-22T02:03:47;19.58;;;12.45;;
59786;SDS011;45672;51.612;5.536;2023-07-22T02:06:12;17.02;;;12.43;;
59786;SDS011;45672;51.612;5.536;2023-07-22T02:08:37;16.70;;;12.30;;
59786;SDS011;45672;51.612;5.536;2023-07-22T02:11:03;16.27;;;11.88;;
59786;SDS011;45672;51.612;5.536;2023-07-22T02:13:31;21.88;;;13.50;;
59786;SDS011;45672;51.612;5.536;2023-07-22T02:15:57;17.38;;;12.27;;
59786;SDS011;45672;51.612;5.536;2023-07-22T02:18:22;17.55;;;11.93;;
59786;SDS011;45672;51.612;5.536;2023-07-22T02:20:47;17.92;;;12.90;;
59786;SDS011;45672;51.612;5.536;2023-07-22T02:23:13;19.45;;;12.52;;
59786;SDS011;45672;51.612;5.536;2023-07-22T02:25:38;18.45;;;13.00;;
59786;SDS011;45672;51.612;5.536;2023-07-22T02:28:04;20.13;;;12.70;;
59786;SDS011;45672;51.612;5.536;2023-07-22T02:30:29;19.38;;;12.57;;
59786;SDS011;45672;51.612;5.536;2023-07-22T02:32:54;18.60;;;12.35;;
59786;SDS011;45672;51.612;5.536;2023-07-22T02:35:21;20.38;;;12.15;;
59786;SDS011;45672;51.612;5.536;2023-07-22T02:37:46;20.15;;;13.52;;
59786;SDS011;45672;51.612;5.536;2023-07-22T02:40:11;17.15;;;12.88;;
59786;SDS011;45672;51.612;5.536;2023-07-22T02:42:37;19.55;;;13.15;;
59786;SDS011;45672;51.612;5.536;2023-07-22T02:45:03;20.05;;;12.45;;
59786;SDS011;45672;51.612;5.536;2023-07-22T02:47:29;26.60;;;18.77;;
59786;SDS011;45672;51.612;5.536;2023-07-22T02:49:57;22.70;;;14.23;;
59786;SDS011;45672;51.612;5.536;2023-07-22T02:52:22;22.42;;;14.15;;
59786;SDS011;45672;51.612;5.536;2023-07-22T02:55:04;19.35;;;12.95;;
59786;SDS011;45672;51.612;5.536;2023-07-22T02:57:34;18.08;;;13.10;;
59786;SDS011;45672;51.612;5.536;2023-07-22T02:59:59;18.25;;;13.73;;
59786;SDS011;45672;51.612;5.536;2023-07-22T03:02:25;19.88;;;13.15;;
59786;SDS011;45672;51.612;5.536;2023-07-22T03:04:50;18.08;;;13.32;;
59786;SDS011;45672;51.612;5.536;2023-07-22T03:07:15;18.70;;;13.32;;
59786;SDS011;45672;51.612;5.536;2023-07-22T03:09:41;23.00;;;14.07;;
59786;SDS011;45672;51.612;5.536;2023-07-22T03:12:06;20.23;;;13.98;;
59786;SDS011;45672;51.612;5.536;2023-07-22T03:14:32;21.30;;;13.90;;
59786;SDS011;45672;51.612;5.536;2023-07-22T03:17:01;22.63;;;13.82;;
59786;SDS011;45672;51.612;5.536;2023-07-22T03:19:27;20.63;;;13.90;;
59786;SDS011;45672;51.612;5.536;2023-07-22T03:21:52;20.77;;;13.57;;
59786;SDS011;45672;51.612;5.536;2023-07-22T03:24:17;19.13;;;12.98;;
59786;SDS011;45672;51.612;5.536;2023-07-22T03:26:43;21.88;;;13.68;;
59786;SDS011;45672;51.612;5.536;2023-07-22T03:29:09;19.23;;;13.15;;
59786;SDS011;45672;51.612;5.536;2023-07-22T03:31:34;25.85;;;13.68;;
59786;SDS011;45672;51.612;5.536;2023-07-22T03:33:59;21.60;;;13.77;;
59786;SDS011;45672;51.612;5.536;2023-07-22T03:36:25;21.80;;;13.77;;
59786;SDS011;45672;51.612;5.536;2023-07-22T03:38:51;20.58;;;13.07;;
59786;SDS011;45672;51.612;5.536;2023-07-22T03:41:17;25.85;;;13.95;;
59786;SDS011;45672;51.612;5.536;2023-07-22T03:43:42;26.75;;;15.82;;
59786;SDS011;45672;51.612;5.536;2023-07-22T03:46:08;23.95;;;14.13;;
59786;SDS011;45672;51.612;5.536;2023-07-22T03:48:33;19.45;;;14.10;;
59786;SDS011;45672;51.612;5.536;2023-07-22T03:50:59;20.85;;;13.25;;
59786;SDS011;45672;51.612;5.536;2023-07-22T03:53:24;21.13;;;13.18;;
59786;SDS011;45672;51.612;5.536;2023-07-22T03:55:50;22.42;;;13.18;;
59786;SDS011;45672;51.612;5.536;2023-07-22T03:58:15;20.65;;;13.35;;
59786;SDS011;45672;51.612;5.536;2023-07-22T04:00:41;21.88;;;13.68;;
59786;SDS011;45672;51.612;5.536;2023-07-22T04:03:06;19.90;;;13.07;;
59786;SDS011;45672;51.612;5.536;2023-07-22T04:05:31;18.75;;;12.60;;
59786;SDS011;45672;51.612;5.536;2023-07-22T04:07:57;20.60;;;13.13;;
59786;SDS011;45672;51.612;5.536;2023-07-22T04:10:22;21.35;;;13.23;;
59786;SDS011;45672;51.612;5.536;2023-07-22T04:12:48;22.92;;;13.00;;
59786;SDS011;45672;51.612;5.536;2023-07-22T04:15:13;19.83;;;13.43;;
59786;SDS011;45672;51.612;5.536;2023-07-22T04:17:40;22.25;;;13.05;;
59786;SDS011;45672;51.612;5.536;2023-07-22T04:20:05;21.60;;;12.93;;
59786;SDS011;45672;51.612;5.536;2023-07-22T04:22:33;18.20;;;12.07;;
59786;SDS011;45672;51.612;5.536;2023-07-22T04:24:58;18.63;;;12.07;;
59786;SDS011;45672;51.612;5.536;2023-07-22T04:27:24;19.98;;;12.70;;
59786;SDS011;45672;51.612;5.536;2023-07-22T04:29:51;18.55;;;11.93;;
59786;SDS011;45672;51.612;5.536;2023-07-22T04:32:16;20.67;;;12.80;;
59786;SDS011;45672;51.612;5.536;2023-07-22T04:34:42;18.25;;;11.55;;
59786;SDS011;45672;51.612;5.536;2023-07-22T04:37:07;19.92;;;12.15;;
59786;SDS011;45672;51.612;5.536;2023-07-22T04:39:32;19.02;;;11.63;;
59786;SDS011;45672;51.612;5.536;2023-07-22T04:41:58;20.05;;;12.57;;
59786;SDS011;45672;51.612;5.536;2023-07-22T04:44:23;20.95;;;12.02;;
59786;SDS011;45672;51.612;5.536;2023-07-22T04:46:49;15.75;;;11.93;;
59786;SDS011;45672;51.612;5.536;2023-07-22T04:49:14;19.48;;;12.63;;
59786;SDS011;45672;51.612;5.536;2023-07-22T04:51:42;18.38;;;12.20;;
59786;SDS011;45672;51.612;5.536;2023-07-22T04:54:09;19.27;;;12.00;;
59786;SDS011;45672;51.612;5.536;2023-07-22T04:56:35;16.60;;;12.10;;
59786;SDS011;45672;51.612;5.536;2023-07-22T04:59:00;20.52;;;12.60;;
59786;SDS011;45672;51.612;5.536;2023-07-22T05:01:25;16.92;;;12.05;;
59786;SDS011;45672;51.612;5.536;2023-07-22T05:03:51;21.73;;;12.68;;
59786;SDS011;45672;51.612;5.536;2023-07-22T05:06:20;18.65;;;12.90;;
59786;SDS011;45672;51.612;5.536;2023-07-22T05:08:45;20.17;;;13.00;;
59786;SDS011;45672;51.612;5.536;2023-07-22T05:11:10;18.95;;;12.38;;
59786;SDS011;45672;51.612;5.536;2023-07-22T05:13:36;18.13;;;12.30;;
59786;SDS011;45672;51.612;5.536;2023-07-22T05:16:01;17.33;;;12.20;;
59786;SDS011;45672;51.612;5.536;2023-07-22T05:18:26;19.33;;;12.65;;
59786;SDS011;45672;51.612;5.536;2023-07-22T05:20:52;21.45;;;13.15;;
59786;SDS011;45672;51.612;5.536;2023-07-22T05:23:17;18.25;;;12.13;;
59786;SDS011;45672;51.612;5.536;2023-07-22T05:25:42;16.85;;;11.45;;
59786;SDS011;45672;51.612;5.536;2023-07-22T05:28:08;21.50;;;12.73;;
59786;SDS011;45672;51.612;5.536;2023-07-22T05:30:33;14.98;;;11.52;;
59786;SDS011;45672;51.612;5.536;2023-07-22T05:32:58;24.92;;;12.00;;
59786;SDS011;45672;51.612;5.536;2023-07-22T05:35:23;15.95;;;11.77;;
59786;SDS011;45672;51.612;5.536;2023-07-22T05:37:49;20.38;;;12.88;;
59786;SDS011;45672;51.612;5.536;2023-07-22T05:40:14;21.05;;;12.30;;
59786;SDS011;45672;51.612;5.536;2023-07-22T05:42:40;21.63;;;12.07;;
59786;SDS011;45672;51.612;5.536;2023-07-22T05:45:06;17.77;;;12.02;;
59786;SDS011;45672;51.612;5.536;2023-07-22T05:47:32;23.60;;;11.93;;
59786;SDS011;45672;51.612;5.536;2023-07-22T05:49:57;17.20;;;11.70;;
59786;SDS011;45672;51.612;5.536;2023-07-22T05:52:23;17.40;;;11.77;;
59786;SDS011;45672;51.612;5.536;2023-07-22T05:54:48;18.58;;;12.70;;
59786;SDS011;45672;51.612;5.536;2023-07-22T05:57:13;23.63;;;12.90;;
59786;SDS011;45672;51.612;5.536;2023-07-22T05:59:39;20.27;;;11.43;;
59786;SDS011;45672;51.612;5.536;2023-07-22T06:02:05;18.90;;;12.38;;
59786;SDS011;45672;51.612;5.536;2023-07-22T06:04:31;18.17;;;12.00;;
59786;SDS011;45672;51.612;5.536;2023-07-22T06:06:57;24.38;;;13.93;;
59786;SDS011;45672;51.612;5.536;2023-07-22T06:09:22;42.20;;;20.48;;
59786;SDS011;45672;51.612;5.536;2023-07-22T06:11:48;18.17;;;13.35;;
59786;SDS011;45672;51.612;5.536;2023-07-22T06:14:13;23.85;;;13.65;;
59786;SDS011;45672;51.612;5.536;2023-07-22T06:16:38;27.20;;;14.80;;
59786;SDS011;45672;51.612;5.536;2023-07-22T06:19:04;21.00;;;13.25;;
59786;SDS011;45672;51.612;5.536;2023-07-22T06:21:29;25.48;;;13.65;;
59786;SDS011;45672;51.612;5.536;2023-07-22T06:23:55;24.73;;;14.30;;
59786;SDS011;45672;51.612;5.536;2023-07-22T06:26:21;19.08;;;12.32;;
59786;SDS011;45672;51.612;5.536;2023-07-22T06:28:46;24.05;;;13.68;;
59786;SDS011;45672;51.612;5.536;2023-07-22T06:31:12;19.73;;;12.77;;
59786;SDS011;45672;51.612;5.536;2023-07-22T06:33:37;20.38;;;13.88;;
59786;SDS011;45672;51.612;5.536;2023-07-22T06:36:03;20.55;;;12.48;;
59786;SDS011;45672;51.612;5.536;2023-07-22T06:38:28;19.02;;;12.48;;
59786;SDS011;45672;51.612;5.536;2023-07-22T06:40:54;21.73;;;13.20;;
59786;SDS011;45672;51.612;5.536;2023-07-22T06:43:19;20.35;;;12.63;;
59786;SDS011;45672;51.612;5.536;2023-07-22T06:45:44;19.50;;;12.50;;
59786;SDS011;45672;51.612;5.536;2023-07-22T06:48:10;21.50;;;12.18;;
59786;SDS011;45672;51.612;5.536;2023-07-22T06:50:35;18.08;;;12.40;;
59786;SDS011;45672;51.612;5.536;2023-07-22T06:53:00;16.30;;;12.25;;
59786;SDS011;45672;51.612;5.536;2023-07-22T06:55:26;19.17;;;12.10;;
59786;SDS011;45672;51.612;5.536;2023-07-22T06:57:51;21.00;;;11.85;;
59786;SDS011;45672;51.612;5.536;2023-07-22T07:00:16;17.25;;;11.48;;
59786;SDS011;45672;51.612;5.536;2023-07-22T07:02:42;19.40;;;11.85;;
59786;SDS011;45672;51.612;5.536;2023-07-22T07:05:07;23.40;;;11.73;;
59786;SDS011;45672;51.612;5.536;2023-07-22T07:07:32;20.35;;;11.65;;
59786;SDS011;45672;51.612;5.536;2023-07-22T07:09:58;21.00;;;11.75;;
59786;SDS011;45672;51.612;5.536;2023-07-22T07:12:23;18.27;;;11.43;;
59786;SDS011;45672;51.612;5.536;2023-07-22T07:14:52;19.45;;;11.52;;
59786;SDS011;45672;51.612;5.536;2023-07-22T07:17:18;18.83;;;11.30;;
59786;SDS011;45672;51.612;5.536;2023-07-22T07:19:44;20.30;;;11.57;;
59786;SDS011;45672;51.612;5.536;2023-07-22T07:22:09;17.75;;;11.48;;
59786;SDS011;45672;51.612;5.536;2023-07-22T07:24:34;19.92;;;12.45;;
59786;SDS011;45672;51.612;5.536;2023-07-22T07:27:00;18.20;;;12.25;;
59786;SDS011;45672;51.612;5.536;2023-07-22T07:29:25;22.33;;;12.80;;
59786;SDS011;45672;51.612;5.536;2023-07-22T07:31:50;18.65;;;11.95;;
59786;SDS011;45672;51.612;5.536;2023-07-22T07:34:16;23.17;;;12.50;;
59786;SDS011;45672;51.612;5.536;2023-07-22T07:36:41;20.73;;;12.32;;
59786;SDS011;45672;51.612;5.536;2023-07-22T07:39:06;24.45;;;12.43;;
59786;SDS011;45672;51.612;5.536;2023-07-22T07:41:32;19.13;;;12.73;;
59786;SDS011;45672;51.612;5.536;2023-07-22T07:43:58;18.88;;;12.15;;
59786;SDS011;45672;51.612;5.536;2023-07-22T07:46:24;20.27;;;13.27;;
59786;SDS011;45672;51.612;5.536;2023-07-22T07:48:52;20.40;;;12.55;;
59786;SDS011;45672;51.612;5.536;2023-07-22T07:51:22;24.10;;;12.57;;
59786;SDS011;45672;51.612;5.536;2023-07-22T07:53:49;24.30;;;12.45;;
59786;SDS011;45672;51.612;5.536;2023-07-22T07:56:15;23.92;;;12.43;;
59786;SDS011;45672;51.612;5.536;2023-07-22T07:58:41;22.55;;;12.43;;
59786;SDS011;45672;51.612;5.536;2023-07-22T08:01:07;17.42;;;11.90;;
59786;SDS011;45672;51.612;5.536;2023-07-22T08:03:34;18.52;;;11.15;;
59786;SDS011;45672;51.612;5.536;2023-07-22T08:06:00;19.00;;;11.88;;
59786;SDS011;45672;51.612;5.536;2023-07-22T08:08:26;23.58;;;11.80;;
59786;SDS011;45672;51.612;5.536;2023-07-22T08:10:58;20.73;;;11.63;;
59786;SDS011;45672;51.612;5.536;2023-07-22T08:13:27;17.90;;;11.45;;
59786;SDS011;45672;51.612;5.536;2023-07-22T08:15:54;19.20;;;9.93;;
59786;SDS011;45672;51.612;5.536;2023-07-22T08:18:20;20.08;;;10.50;;
59786;SDS011;45672;51.612;5.536;2023-07-22T08:20:45;15.90;;;9.38;;
59786;SDS011;45672;51.612;5.536;2023-07-22T08:23:12;18.15;;;9.73;;
59786;SDS011;45672;51.612;5.536;2023-07-22T08:25:38;16.77;;;9.77;;
59786;SDS011;45672;51.612;5.536;2023-07-22T08:28:03;13.70;;;9.30;;
59786;SDS011;45672;51.612;5.536;2023-07-22T08:30:28;15.85;;;10.27;;
59786;SDS011;45672;51.612;5.536;2023-07-22T08:32:54;12.30;;;9.10;;
59786;SDS011;45672;51.612;5.536;2023-07-22T08:35:19;12.75;;;8.35;;
59786;SDS011;45672;51.612;5.536;2023-07-22T08:37:44;13.07;;;8.25;;
59786;SDS011;45672;51.612;5.536;2023-07-22T08:40:11;12.90;;;8.20;;
59786;SDS011;45672;51.612;5.536;2023-07-22T08:42:37;12.00;;;8.05;;
59786;SDS011;45672;51.612;5.536;2023-07-22T08:45:03;12.60;;;7.55;;
59786;SDS011;45672;51.612;5.536;2023-07-22T08:47:31;11.38;;;7.35;;
59786;SDS011;45672;51.612;5.536;2023-07-22T08:49:58;13.68;;;8.02;;
59786;SDS011;45672;51.612;5.536;2023-07-22T08:52:26;12.38;;;6.75;;
59786;SDS011;45672;51.612;5.536;2023-07-22T08:54:52;11.63;;;7.00;;
59786;SDS011;45672;51.612;5.536;2023-07-22T08:57:18;18.63;;;6.95;;
59786;SDS011;45672;51.612;5.536;2023-07-22T08:59:45;8.10;;;6.55;;
59786;SDS011;45672;51.612;5.536;2023-07-22T09:02:12;7.60;;;5.80;;
59786;SDS011;45672;51.612;5.536;2023-07-22T09:04:38;9.98;;;6.55;;
59786;SDS011;45672;51.612;5.536;2023-07-22T09:07:05;9.65;;;5.78;;
59786;SDS011;45672;51.612;5.536;2023-07-22T09:09:32;9.43;;;5.13;;
59786;SDS011;45672;51.612;5.536;2023-07-22T09:11:58;7.68;;;6.13;;
59786;SDS011;45672;51.612;5.536;2023-07-22T09:14:25;13.18;;;6.80;;
59786;SDS011;45672;51.612;5.536;2023-07-22T09:16:51;8.25;;;6.10;;
59786;SDS011;45672;51.612;5.536;2023-07-22T09:19:16;10.38;;;5.57;;
59786;SDS011;45672;51.612;5.536;2023-07-22T09:21:42;9.00;;;5.63;;
59786;SDS011;45672;51.612;5.536;2023-07-22T09:24:23;10.75;;;6.35;;
59786;SDS011;45672;51.612;5.536;2023-07-22T09:26:50;7.50;;;5.38;;
59786;SDS011;45672;51.612;5.536;2023-07-22T09:29:16;11.38;;;5.38;;
59786;SDS011;45672;51.612;5.536;2023-07-22T09:31:48;7.50;;;5.35;;
59786;SDS011;45672;51.612;5.536;2023-07-22T09:34:15;11.27;;;4.85;;
59786;SDS011;45672;51.612;5.536;2023-07-22T09:36:50;9.57;;;5.57;;
59786;SDS011;45672;51.612;5.536;2023-07-22T09:39:16;5.90;;;5.18;;
59786;SDS011;45672;51.612;5.536;2023-07-22T09:41:41;8.02;;;4.88;;
59786;SDS011;45672;51.612;5.536;2023-07-22T09:44:09;9.27;;;4.65;;
59786;SDS011;45672;51.612;5.536;2023-07-22T09:46:36;6.78;;;4.60;;
59786;SDS011;45672;51.612;5.536;2023-07-22T09:49:05;7.57;;;5.05;;
59786;SDS011;45672;51.612;5.536;2023-07-22T09:51:36;8.90;;;4.40;;
59786;SDS011;45672;51.612;5.536;2023-07-22T09:54:03;7.72;;;4.45;;
59786;SDS011;45672;51.612;5.536;2023-07-22T09:56:30;11.82;;;4.80;;
59786;SDS011;45672;51.612;5.536;2023-07-22T09:58:57;7.50;;;4.45;;
59786;SDS011;45672;51.612;5.536;2023-07-22T10:01:24;9.70;;;5.03;;
59786;SDS011;45672;51.612;5.536;2023-07-22T10:03:54;10.25;;;5.65;;
59786;SDS011;45672;51.612;5.536;2023-07-22T10:06:21;9.18;;;5.30;;
59786;SDS011;45672;51.612;5.536;2023-07-22T10:08:52;6.00;;;4.57;;
59786;SDS011;45672;51.612;5.536;2023-07-22T10:11:17;12.30;;;5.18;;
59786;SDS011;45672;51.612;5.536;2023-07-22T10:13:43;9.30;;;4.55;;
59786;SDS011;45672;51.612;5.536;2023-07-22T10:16:10;8.85;;;4.53;;
59786;SDS011;45672;51.612;5.536;2023-07-22T10:18:35;7.55;;;4.57;;
59786;SDS011;45672;51.612;5.536;2023-07-22T10:21:02;7.40;;;4.25;;
59786;SDS011;45672;51.612;5.536;2023-07-22T10:23:28;9.68;;;4.20;;
59786;SDS011;45672;51.612;5.536;2023-07-22T10:25:54;14.00;;;4.90;;
59786;SDS011;45672;51.612;5.536;2023-07-22T10:28:22;7.80;;;4.50;;
59786;SDS011;45672;51.612;5.536;2023-07-22T10:30:48;8.73;;;4.40;;
59786;SDS011;45672;51.612;5.536;2023-07-22T10:33:14;6.70;;;3.83;;
59786;SDS011;45672;51.612;5.536;2023-07-22T10:35:41;6.10;;;3.50;;
59786;SDS011;45672;51.612;5.536;2023-07-22T10:38:13;9.50;;;3.60;;
59786;SDS011;45672;51.612;5.536;2023-07-22T10:40:50;9.10;;;3.70;;
59786;SDS011;45672;51.612;5.536;2023-07-22T10:43:17;4.15;;;3.08;;
59786;SDS011;45672;51.612;5.536;2023-07-22T10:45:49;6.20;;;3.42;;
59786;SDS011;45672;51.612;5.536;2023-07-22T10:48:18;5.40;;;3.85;;
59786;SDS011;45672;51.612;5.536;2023-07-22T10:50:48;10.07;;;3.95;;
59786;SDS011;45672;51.612;5.536;2023-07-22T11:11:53;3.08;;;2.10;;
59786;SDS011;45672;51.612;5.536;2023-07-22T11:14:22;4.15;;;2.40;;
59786;SDS011;45672;51.612;5.536;2023-07-22T11:16:49;5.00;;;2.95;;
59786;SDS011;45672;51.612;5.536;2023-07-22T11:19:18;3.72;;;2.00;;
59786;SDS011;45672;51.612;5.536;2023-07-22T11:21:45;4.57;;;2.00;;
59786;SDS011;45672;51.612;5.536;2023-07-22T11:24:11;3.20;;;1.90;;
59786;SDS011;45672;51.612;5.536;2023-07-22T11:26:37;7.32;;;1.88;;
59786;SDS011;45672;51.612;5.536;2023-07-22T11:29:04;4.97;;;2.10;;
59786;SDS011;45672;51.612;5.536;2023-07-22T11:31:34;3.30;;;2.17;;
59786;SDS011;45672;51.612;5.536;2023-07-22T11:34:11;4.47;;;2.10;;
59786;SDS011;45672;51.612;5.536;2023-07-22T11:36:37;3.55;;;1.77;;
59786;SDS011;45672;51.612;5.536;2023-07-22T11:39:03;6.50;;;2.17;;
59786;SDS011;45672;51.612;5.536;2023-07-22T11:41:30;2.53;;;2.03;;
59786;SDS011;45672;51.612;5.536;2023-07-22T11:43:58;3.55;;;1.98;;
59786;SDS011;45672;51.612;5.536;2023-07-22T11:46:30;7.40;;;1.73;;
59786;SDS011;45672;51.612;5.536;2023-07-22T11:48:55;2.47;;;1.65;;
59786;SDS011;45672;51.612;5.536;2023-07-22T11:51:21;3.47;;;1.60;;
59786;SDS011;45672;51.612;5.536;2023-07-22T11:53:50;1.70;;;1.52;;
59786;SDS011;45672;51.612;5.536;2023-07-22T11:56:20;3.65;;;1.85;;
59786;SDS011;45672;51.612;5.536;2023-07-22T11:58:51;2.42;;;1.88;;
59786;SDS011;45672;51.612;5.536;2023-07-22T12:01:17;7.05;;;1.90;;
59786;SDS011;45672;51.612;5.536;2023-07-22T12:03:43;2.78;;;1.90;;
59786;SDS011;45672;51.612;5.536;2023-07-22T12:06:08;3.03;;;1.80;;
59786;SDS011;45672;51.612;5.536;2023-07-22T12:08:35;5.82;;;2.00;;
59786;SDS011;45672;51.612;5.536;2023-07-22T12:11:01;2.70;;;1.83;;
59786;SDS011;45672;51.612;5.536;2023-07-22T12:13:26;4.57;;;1.90;;
59786;SDS011;45672;51.612;5.536;2023-07-22T12:16:02;2.80;;;2.15;;
59786;SDS011;45672;51.612;5.536;2023-07-22T12:18:28;5.60;;;1.90;;
59786;SDS011;45672;51.612;5.536;2023-07-22T12:21:09;2.28;;;2.08;;
59786;SDS011;45672;51.612;5.536;2023-07-22T12:23:35;3.60;;;1.90;;
59786;SDS011;45672;51.612;5.536;2023-07-22T12:26:01;3.03;;;2.20;;
59786;SDS011;45672;51.612;5.536;2023-07-22T12:28:27;3.17;;;2.25;;
59786;SDS011;45672;51.612;5.536;2023-07-22T12:30:52;2.45;;;1.98;;
59786;SDS011;45672;51.612;5.536;2023-07-22T12:33:18;3.90;;;2.30;;
59786;SDS011;45672;51.612;5.536;2023-07-22T12:35:43;5.05;;;2.22;;
59786;SDS011;45672;51.612;5.536;2023-07-22T12:38:08;4.93;;;2.05;;
59786;SDS011;45672;51.612;5.536;2023-07-22T12:40:33;3.08;;;2.20;;
59786;SDS011;45672;51.612;5.536;2023-07-22T12:42:59;3.97;;;1.88;;
59786;SDS011;45672;51.612;5.536;2023-07-22T12:45:24;3.75;;;1.80;;
59786;SDS011;45672;51.612;5.536;2023-07-22T12:47:50;5.53;;;2.13;;
59786;SDS011;45672;51.612;5.536;2023-07-22T12:50:15;3.25;;;1.98;;
59786;SDS011;45672;51.612;5.536;2023-07-22T12:52:41;3.05;;;1.92;;
59786;SDS011;45672;51.612;5.536;2023-07-22T12:55:06;5.65;;;2.10;;
59786;SDS011;45672;51.612;5.536;2023-07-22T12:57:32;2.72;;;2.00;;
59786;SDS011;45672;51.612;5.536;2023-07-22T12:59:57;4.78;;;2.45;;
59786;SDS011;45672;51.612;5.536;2023-07-22T13:02:23;4.35;;;1.83;;
59786;SDS011;45672;51.612;5.536;2023-07-22T13:04:48;3.25;;;1.85;;
59786;SDS011;45672;51.612;5.536;2023-07-22T13:07:13;7.45;;;2.30;;
59786;SDS011;45672;51.612;5.536;2023-07-22T13:09:39;3.90;;;2.20;;
59786;SDS011;45672;51.612;5.536;2023-07-22T13:12:05;5.93;;;2.00;;
59786;SDS011;45672;51.612;5.536;2023-07-22T13:14:30;3.50;;;1.95;;
59786;SDS011;45672;51.612;5.536;2023-07-22T13:16:56;2.15;;;1.98;;
59786;SDS011;45672;51.612;5.536;2023-07-22T13:19:21;2.33;;;1.95;;
59786;SDS011;45672;51.612;5.536;2023-07-22T13:21:47;3.67;;;1.98;;
59786;SDS011;45672;51.612;5.536;2023-07-22T13:24:12;5.75;;;2.10;;
59786;SDS011;45672;51.612;5.536;2023-07-22T13:26:37;5.20;;;1.80;;
59786;SDS011;45672;51.612;5.536;2023-07-22T13:29:02;3.42;;;2.08;;
59786;SDS011;45672;51.612;5.536;2023-07-22T13:31:28;2.10;;;1.80;;
59786;SDS011;45672;51.612;5.536;2023-07-22T13:33:53;6.53;;;1.95;;
59786;SDS011;45672;51.612;5.536;2023-07-22T13:36:18;3.00;;;1.92;;
59786;SDS011;45672;51.612;5.536;2023-07-22T13:38:44;3.50;;;1.77;;
59786;SDS011;45672;51.612;5.536;2023-07-22T13:41:09;4.75;;;1.52;;
59786;SDS011;45672;51.612;5.536;2023-07-22T13:43:34;2.22;;;1.40;;
59786;SDS011;45672;51.612;5.536;2023-07-22T13:45:59;6.15;;;1.95;;
59786;SDS011;45672;51.612;5.536;2023-07-22T13:48:25;3.70;;;2.10;;
59786;SDS011;45672;51.612;5.536;2023-07-22T13:50:50;2.25;;;1.83;;
59786;SDS011;45672;51.612;5.536;2023-07-22T13:53:15;1.75;;;1.50;;
59786;SDS011;45672;51.612;5.536;2023-07-22T13:55:41;2.40;;;1.50;;
59786;SDS011;45672;51.612;5.536;2023-07-22T13:58:06;3.58;;;1.60;;
59786;SDS011;45672;51.612;5.536;2023-07-22T14:00:32;2.55;;;1.60;;
59786;SDS011;45672;51.612;5.536;2023-07-22T14:02:58;3.08;;;1.80;;
59786;SDS011;45672;51.612;5.536;2023-07-22T14:05:24;2.08;;;1.58;;
59786;SDS011;45672;51.612;5.536;2023-07-22T14:07:50;2.30;;;1.58;;
59786;SDS011;45672;51.612;5.536;2023-07-22T14:10:15;6.05;;;1.40;;
59786;SDS011;45672;51.612;5.536;2023-07-22T14:12:40;2.97;;;1.60;;
59786;SDS011;45672;51.612;5.536;2023-07-22T14:15:06;2.75;;;1.58;;
59786;SDS011;45672;51.612;5.536;2023-07-22T14:17:32;1.98;;;1.48;;
59786;SDS011;45672;51.612;5.536;2023-07-22T14:19:57;4.45;;;1.50;;
59786;SDS011;45672;51.612;5.536;2023-07-22T14:22:23;1.73;;;1.40;;
59786;SDS011;45672;51.612;5.536;2023-07-22T14:24:48;1.77;;;1.45;;
59786;SDS011;45672;51.612;5.536;2023-07-22T14:27:14;3.22;;;1.55;;
59786;SDS011;45672;51.612;5.536;2023-07-22T14:29:39;1.80;;;1.70;;
59786;SDS011;45672;51.612;5.536;2023-07-22T14:32:04;2.50;;;1.40;;
59786;SDS011;45672;51.612;5.536;2023-07-22T14:34:30;2.25;;;1.52;;
59786;SDS011;45672;51.612;5.536;2023-07-22T14:36:55;1.67;;;1.52;;
59786;SDS011;45672;51.612;5.536;2023-07-22T14:39:20;2.17;;;1.50;;
59786;SDS011;45672;51.612;5.536;2023-07-22T14:41:46;3.72;;;1.60;;
59786;SDS011;45672;51.612;5.536;2023-07-22T14:44:11;2.22;;;1.75;;